Time;durP1;ratioP1;P1;durP2;ratioP2;P2;SDS_P1;SDS_P2;PMS_P1;PMS_P2;Temp;Humidity;BMP_temperature;BMP_pressure;BME280_temperature;BME280_humidity;BME280_pressure;Samples;Min_cycle;Max_cycle;Signal;HPM_P1;HPM_P2
2022/04/26 03:37:11;;;;;;;15.63;11.15;;;12.00;73.90;;;;;;5072715;28;20098;-51
2022/04/26 03:39:41;;;;;;;16.10;11.68;;;12.00;73.90;;;;;;5073990;28;20055;-51
2022/04/26 03:42:10;;;;;;;18.42;11.77;;;12.00;74.00;;;;;;5081457;28;20062;-51
2022/04/26 03:44:37;;;;;;;16.85;12.52;;;11.90;73.90;;;;;;5085918;28;20047;-53
2022/04/26 03:47:06;;;;;;;14.60;11.25;;;11.90;74.00;;;;;;5056590;28;20144;-51
2022/04/26 03:49:37;;;;;;;14.55;11.20;;;11.90;73.80;;;;;;5073750;28;20047;-48
2022/04/26 03:52:04;;;;;;;12.50;9.40;;;11.90;73.90;;;;;;5072845;28;20044;-48
2022/04/26 03:54:31;;;;;;;14.77;9.43;;;11.80;73.70;;;;;;5069996;28;20044;-51
2022/04/26 03:56:58;;;;;;;13.95;9.93;;;11.80;73.70;;;;;;5079258;28;20094;-53
2022/04/26 03:59:27;;;;;;;11.68;8.93;;;11.80;73.60;;;;;;5073676;28;20103;-48
2022/04/26 04:01:56;;;;;;;13.77;9.00;;;11.70;73.60;;;;;;5085279;28;20086;-49
2022/04/26 04:04:25;;;;;;;13.23;9.55;;;11.70;73.50;;;;;;5054252;28;20116;-52
2022/04/26 04:06:52;;;;;;;10.98;9.07;;;11.70;74.30;;;;;;5075266;28;20037;-51
2022/04/26 04:09:19;;;;;;;13.07;8.73;;;11.70;73.60;;;;;;5083234;28;20102;-48
2022/04/26 04:11:49;;;;;;;10.77;8.45;;;11.60;73.60;;;;;;5079405;28;20373;-49
2022/04/26 04:14:18;;;;;;;12.63;9.00;;;11.60;73.50;;;;;;5071026;28;20048;-51
2022/04/26 04:16:49;;;;;;;10.77;8.10;;;11.60;73.60;;;;;;5075850;28;20608;-49
2022/04/26 04:19:24;;;;;;;10.13;7.53;;;11.60;73.60;;;;;;5081849;28;20396;-48
2022/04/26 04:21:53;;;;;;;11.75;8.13;;;11.50;73.70;;;;;;5072694;28;20043;-51
2022/04/26 04:24:22;;;;;;;12.38;7.53;;;11.50;73.50;;;;;;5069177;28;20448;-48
2022/04/26 04:26:51;;;;;;;8.20;6.95;;;11.50;73.50;;;;;;5083551;28;20777;-51
2022/04/26 04:29:19;;;;;;;9.85;7.13;;;11.50;73.30;;;;;;5091555;28;20044;-48
2022/04/26 04:31:46;;;;;;;10.85;7.63;;;11.50;73.30;;;;;;5092756;28;20052;-49
2022/04/26 04:34:16;;;;;;;10.90;7.70;;;11.40;73.20;;;;;;5074177;28;20082;-52
2022/04/26 04:36:43;;;;;;;9.68;7.18;;;11.40;72.90;;;;;;5083144;28;20077;-49
2022/04/26 04:39:09;;;;;;;10.18;7.22;;;11.40;72.80;;;;;;5084535;28;20067;-49
2022/04/26 04:41:36;;;;;;;9.23;7.03;;;11.40;73.00;;;;;;5072654;28;20101;-50
2022/04/26 04:44:07;;;;;;;8.98;7.22;;;11.40;73.20;;;;;;5076525;28;20060;-51
2022/04/26 04:46:34;;;;;;;12.60;8.43;;;11.30;73.20;;;;;;5047911;28;20786;-51
2022/04/26 04:49:00;;;;;;;11.45;7.88;;;11.30;73.30;;;;;;5063855;28;20413;-51
2022/04/26 04:51:29;;;;;;;9.35;7.32;;;11.30;73.40;;;;;;5060775;28;20087;-49
2022/04/26 04:53:56;;;;;;;10.95;7.63;;;11.30;73.30;;;;;;5062673;28;20044;-53
2022/04/26 04:56:26;;;;;;;8.98;7.22;;;11.30;73.20;;;;;;5065208;28;20087;-50
2022/04/26 04:58:53;;;;;;;10.32;7.43;;;11.30;73.20;;;;;;5067263;28;20040;-51
2022/04/26 05:01:20;;;;;;;9.10;7.25;;;11.30;73.10;;;;;;5062617;28;20091;-54
2022/04/26 05:03:47;;;;;;;7.75;6.95;;;11.30;73.10;;;;;;5059915;28;20049;-51
2022/04/26 05:06:16;;;;;;;12.13;7.78;;;11.20;72.90;;;;;;5063421;28;20045;-50
2022/04/26 05:08:44;;;;;;;8.50;7.05;;;11.20;72.90;;;;;;5061611;28;20086;-54
2022/04/26 05:11:14;;;;;;;8.48;6.78;;;11.20;72.90;;;;;;5066369;28;20049;-50
2022/04/26 05:13:42;;;;;;;10.65;6.70;;;11.20;72.90;;;;;;5067606;28;20147;-52
2022/04/26 05:16:10;;;;;;;11.32;7.20;;;11.20;73.00;;;;;;5079808;28;20037;-52
2022/04/26 05:18:37;;;;;;;8.77;6.28;;;11.20;73.00;;;;;;5084119;28;20377;-52
2022/04/26 05:21:13;;;;;;;10.05;7.80;;;11.20;73.00;;;;;;5085437;28;20082;-53
2022/04/26 05:26:27;;;;;;;9.73;7.88;;;11.20;73.10;;;;;;5072921;28;20142;-49
2022/04/26 05:29:00;;;;;;;11.67;7.53;;;11.20;72.80;;;;;;5070356;28;20047;-49
2022/04/26 05:31:32;;;;;;;12.02;7.63;;;11.20;72.90;;;;;;5067228;28;20066;-52
2022/04/26 05:33:59;;;;;;;11.75;8.45;;;11.20;73.20;;;;;;5080133;28;20036;-52
2022/04/26 05:36:33;;;;;;;12.48;8.25;;;11.30;73.30;;;;;;5058127;28;20693;-51
2022/04/26 05:39:05;;;;;;;9.10;7.35;;;11.20;73.30;;;;;;5046978;28;20039;-52
2022/04/26 05:41:35;;;;;;;9.68;7.43;;;11.30;73.50;;;;;;5086114;28;20101;-51
2022/04/26 05:44:02;;;;;;;10.43;8.25;;;11.30;73.60;;;;;;5075018;28;20040;-52
2022/04/26 05:46:30;;;;;;;11.77;8.25;;;11.40;73.40;;;;;;5047680;28;20048;-51
2022/04/26 05:48:56;;;;;;;10.57;8.48;;;11.40;73.40;;;;;;5053302;28;20087;-51
2022/04/26 05:51:25;;;;;;;8.80;7.82;;;11.50;73.40;;;;;;5074856;28;20044;-51
2022/04/26 05:53:51;;;;;;;10.25;7.40;;;11.50;73.30;;;;;;5063364;28;20044;-49
2022/04/26 05:56:23;;;;;;;9.93;7.20;;;11.50;73.20;;;;;;5057127;28;20102;-48
2022/04/26 05:58:49;;;;;;;10.60;7.18;;;11.60;73.30;;;;;;5056734;28;20106;-51
2022/04/26 06:01:16;;;;;;;10.90;7.90;;;11.60;73.30;;;;;;5050440;28;20079;-49
2022/04/26 06:03:47;;;;;;;10.18;7.80;;;11.70;73.60;;;;;;5066661;28;20585;-50
2022/04/26 06:06:14;;;;;;;12.48;7.95;;;11.60;73.50;;;;;;5071739;28;20429;-52
2022/04/26 06:08:43;;;;;;;8.75;7.43;;;11.70;73.30;;;;;;5059008;28;20041;-50
2022/04/26 06:11:17;;;;;;;12.18;7.97;;;11.70;73.10;;;;;;5061746;28;20070;-55
2022/04/26 06:13:46;;;;;;;12.88;8.98;;;11.70;72.90;;;;;;5059018;28;20044;-50
2022/04/26 06:16:14;;;;;;;10.60;8.60;;;11.80;72.50;;;;;;5046811;28;20063;-54
2022/04/26 06:18:42;;;;;;;8.80;7.50;;;11.80;72.30;;;;;;5065719;28;20123;-51
2022/04/26 06:21:09;;;;;;;10.70;7.78;;;11.70;72.40;;;;;;5051988;28;20095;-52
2022/04/26 06:23:39;;;;;;;12.40;8.45;;;11.70;72.40;;;;;;5062240;28;20393;-51
2022/04/26 06:26:08;;;;;;;11.95;8.05;;;11.70;72.40;;;;;;5072289;28;20043;-54
2022/04/26 06:28:39;;;;;;;10.20;9.02;;;11.70;72.30;;;;;;5060646;28;20052;-49
2022/04/26 06:31:06;;;;;;;10.15;7.60;;;11.70;72.20;;;;;;5058372;28;20527;-50
2022/04/26 06:33:35;;;;;;;11.32;8.38;;;11.70;73.30;;;;;;5057017;28;20441;-51
2022/04/26 06:36:07;;;;;;;11.48;8.32;;;11.70;72.70;;;;;;5059147;28;20436;-49
2022/04/26 06:38:36;;;;;;;8.85;7.53;;;11.70;73.10;;;;;;5041816;28;20110;-52
2022/04/26 06:41:03;;;;;;;11.35;7.78;;;11.80;73.30;;;;;;5051313;28;20060;-52
2022/04/26 06:43:32;;;;;;;13.50;8.95;;;11.80;73.30;;;;;;5075440;28;20032;-49
2022/04/26 06:46:02;;;;;;;12.68;8.80;;;11.80;73.30;;;;;;5067010;28;20497;-54
2022/04/26 06:48:32;;;;;;;13.30;8.73;;;11.90;73.20;;;;;;5078438;28;20131;-51
2022/04/26 06:51:01;;;;;;;12.77;9.98;;;11.90;72.70;;;;;;5061435;28;20287;-47
2022/04/26 06:53:29;;;;;;;9.55;8.52;;;11.90;72.60;;;;;;5066217;28;20045;-49
2022/04/26 06:55:56;;;;;;;10.07;8.25;;;11.90;72.60;;;;;;5062753;28;20090;-51
2022/04/26 06:58:30;;;;;;;14.15;10.23;;;12.00;72.40;;;;;;5067201;28;20041;-48
2022/04/26 07:01:00;;;;;;;10.68;8.70;;;12.00;72.00;;;;;;5071774;28;20036;-51
2022/04/26 07:03:46;;;;;;;12.75;9.00;;;11.90;71.90;;;;;;5068959;28;20116;-50
2022/04/26 07:06:14;;;;;;;15.45;10.23;;;11.90;72.20;;;;;;5071630;28;20049;-54
2022/04/26 07:08:40;;;;;;;10.52;9.20;;;12.00;72.20;;;;;;5073310;28;20075;-52
2022/04/26 07:11:10;;;;;;;10.73;9.07;;;12.00;72.10;;;;;;5076982;28;20531;-50
2022/04/26 07:13:36;;;;;;;16.02;9.55;;;12.00;72.20;;;;;;5064233;28;20095;-51
2022/04/26 07:16:06;;;;;;;10.65;9.25;;;12.00;72.00;;;;;;5055269;28;20128;-50
2022/04/26 07:18:36;;;;;;;14.77;9.52;;;12.00;71.90;;;;;;5066567;28;20032;-54
2022/04/26 07:21:03;;;;;;;13.80;8.95;;;12.00;72.00;;;;;;5057873;28;20048;-52
2022/04/26 07:23:29;;;;;;;14.43;10.40;;;12.00;71.80;;;;;;5064248;28;20029;-52
2022/04/26 07:25:59;;;;;;;11.23;9.10;;;12.00;71.70;;;;;;5068774;28;20111;-51
2022/04/26 07:28:26;;;;;;;12.88;9.30;;;12.00;72.00;;;;;;5048145;28;20129;-50
2022/04/26 07:30:53;;;;;;;11.18;9.75;;;12.00;71.90;;;;;;5061528;28;20549;-50
2022/04/26 07:36:06;;;;;;;12.10;10.35;;;12.00;71.90;;;;;;5057900;28;20041;-53
2022/04/26 07:38:36;;;;;;;13.20;10.05;;;12.00;71.80;;;;;;5056391;28;20064;-51
2022/04/26 07:41:03;;;;;;;13.10;10.60;;;12.00;72.20;;;;;;5061679;28;20496;-54
2022/04/26 07:43:30;;;;;;;17.27;11.70;;;12.10;72.30;;;;;;5060164;28;20047;-48
2022/04/26 07:45:56;;;;;;;13.05;10.43;;;12.10;72.00;;;;;;5049361;28;20080;-52
2022/04/26 07:48:26;;;;;;;17.65;10.77;;;12.10;72.00;;;;;;5079552;28;20063;-50
2022/04/26 07:50:54;;;;;;;14.13;11.55;;;12.20;71.90;;;;;;5080805;28;20051;-48
2022/04/26 07:53:21;;;;;;;16.00;11.80;;;12.20;71.80;;;;;;5082930;22;20056;-49
2022/04/26 07:55:47;;;;;;;14.70;12.00;;;12.20;71.80;;;;;;5089813;28;20535;-47
2022/04/26 07:58:14;;;;;;;16.08;11.65;;;12.30;72.00;;;;;;5081521;28;20052;-48
2022/04/26 08:00:41;;;;;;;15.75;11.68;;;12.30;71.70;;;;;;5076897;28;20504;-50
2022/04/26 08:03:10;;;;;;;15.15;12.10;;;12.40;71.90;;;;;;5089792;28;20040;-48
2022/04/26 08:05:40;;;;;;;15.73;12.30;;;12.50;71.90;;;;;;5081881;28;20040;-47
2022/04/26 08:08:07;;;;;;;14.93;12.18;;;12.50;71.90;;;;;;5062322;28;20036;-48
2022/04/26 08:10:36;;;;;;;14.65;12.32;;;12.60;71.90;;;;;;5070063;28;20047;-49
2022/04/26 08:13:03;;;;;;;14.32;12.20;;;12.70;71.80;;;;;;5082040;28;20124;-49
2022/04/26 08:15:33;;;;;;;15.40;12.30;;;12.80;71.60;;;;;;5059826;28;20438;-50
2022/04/26 08:18:00;;;;;;;18.48;13.93;;;12.90;71.40;;;;;;5061779;28;20790;-46
2022/04/26 08:20:29;;;;;;;17.77;13.77;;;13.00;71.20;;;;;;5064242;28;20072;-48
2022/04/26 08:22:56;;;;;;;18.88;13.80;;;13.00;70.50;;;;;;5065952;28;20045;-46
2022/04/26 08:28:13;;;;;;;17.67;13.75;;;13.10;69.80;;;;;;5048256;28;20504;-49
2022/04/26 08:30:40;;;;;;;17.50;13.02;;;13.20;69.50;;;;;;5064276;28;20077;-48
2022/04/26 08:33:06;;;;;;;16.88;13.75;;;13.20;69.90;;;;;;5063767;28;20037;-50
2022/04/26 08:35:36;;;;;;;17.00;14.07;;;13.20;69.90;;;;;;5060197;28;20080;-48
2022/04/26 08:38:23;;;;;;;19.45;12.85;;;13.20;70.00;;;;;;5053844;28;20135;-50
2022/04/26 08:40:52;;;;;;;17.25;13.13;;;13.20;70.10;;;;;;5060035;28;20083;-47
2022/04/26 08:43:22;;;;;;;17.73;13.48;;;13.30;70.00;;;;;;5058036;28;20065;-47
2022/04/26 08:45:58;;;;;;;16.77;12.52;;;13.30;69.80;;;;;;5056564;28;20047;-48
2022/04/26 08:51:13;;;;;;;16.15;14.02;;;13.40;69.50;;;;;;5058354;28;20040;-47
2022/04/26 08:53:40;;;;;;;17.67;13.98;;;13.50;69.20;;;;;;5057968;28;20411;-48
2022/04/26 08:56:07;;;;;;;17.17;13.55;;;13.50;69.20;;;;;;5063792;28;20041;-53
2022/04/26 08:58:35;;;;;;;15.95;12.95;;;13.60;68.70;;;;;;5062678;28;20040;-47
2022/04/26 09:01:06;;;;;;;14.73;12.80;;;13.60;68.30;;;;;;5078921;28;20064;-50
2022/04/26 09:03:35;;;;;;;15.43;13.18;;;13.60;68.70;;;;;;5052657;28;20040;-48
2022/04/26 09:06:08;;;;;;;16.10;13.20;;;13.70;68.80;;;;;;5056264;28;20044;-50
2022/04/26 09:08:36;;;;;;;14.90;12.90;;;13.70;68.40;;;;;;5070462;28;20032;-50
2022/04/26 09:11:04;;;;;;;15.57;12.50;;;13.80;68.00;;;;;;5075882;28;20044;-47
2022/04/26 09:13:39;;;;;;;20.00;13.75;;;13.80;68.00;;;;;;5068386;28;20451;-50
2022/04/26 09:16:16;;;;;;;19.30;12.30;;;13.80;67.70;;;;;;5041291;28;20053;-44
2022/04/26 09:18:56;;;;;;;13.98;12.18;;;13.90;67.70;;;;;;5055554;28;20102;-48
2022/04/26 09:21:27;;;;;;;16.27;12.43;;;13.90;67.90;;;;;;5060264;28;20040;-47
2022/04/26 09:24:08;;;;;;;13.52;11.85;;;14.00;68.40;;;;;;5059096;28;20048;-51
2022/04/26 09:26:39;;;;;;;16.15;12.60;;;14.10;68.30;;;;;;5056036;28;20086;-48
2022/04/26 09:29:08;;;;;;;14.68;12.40;;;14.20;68.50;;;;;;5066784;28;20061;-46
2022/04/26 09:31:38;;;;;;;15.52;12.60;;;14.30;67.80;;;;;;5058411;28;20032;-48
2022/04/26 09:34:12;;;;;;;15.85;13.00;;;14.40;67.20;;;;;;5058397;28;20037;-45
2022/04/26 09:36:50;;;;;;;18.67;13.90;;;14.50;66.80;;;;;;5062242;28;20078;-49
2022/04/26 09:39:24;;;;;;;18.23;13.13;;;14.50;66.40;;;;;;5065127;28;20079;-48
2022/04/26 09:42:10;;;;;;;16.15;12.45;;;14.60;66.40;;;;;;5059882;28;20037;-49
2022/04/26 09:44:40;;;;;;;16.92;12.50;;;14.60;66.20;;;;;;5058726;28;20047;-49
2022/04/26 09:47:09;;;;;;;16.02;13.32;;;14.70;66.80;;;;;;5060738;28;20515;-49
2022/04/26 09:49:37;;;;;;;14.32;12.43;;;14.80;65.80;;;;;;5074365;28;20561;-47
2022/04/26 09:52:13;;;;;;;15.82;13.20;;;14.70;66.50;;;;;;5063141;28;20052;-45
2022/04/26 09:54:39;;;;;;;15.38;12.57;;;14.80;65.90;;;;;;5061748;28;20079;-46
2022/04/26 09:57:09;;;;;;;15.75;12.05;;;14.90;65.70;;;;;;5074677;28;20072;-49
2022/04/26 10:00:00;;;;;;;14.07;11.35;;;14.90;66.00;;;;;;5057510;28;20060;-45
2022/04/26 10:02:37;;;;;;;14.80;12.25;;;15.00;65.20;;;;;;5075131;28;20044;-50
2022/04/26 10:05:12;;;;;;;14.60;11.60;;;15.00;64.50;;;;;;5063309;28;20807;-49
2022/04/26 10:07:44;;;;;;;12.48;10.93;;;15.00;64.40;;;;;;5050128;28;20512;-53
2022/04/26 10:10:11;;;;;;;14.60;11.50;;;15.00;64.40;;;;;;5059981;28;20078;-50
2022/04/26 10:12:40;;;;;;;13.60;11.40;;;15.00;65.10;;;;;;5062195;28;20044;-50
2022/04/26 10:15:10;;;;;;;15.05;12.10;;;15.00;64.40;;;;;;5074647;28;20032;-52
2022/04/26 10:17:48;;;;;;;13.23;11.82;;;15.00;64.40;;;;;;5066768;28;20448;-50
2022/04/26 10:20:47;;;;;;;12.95;11.40;;;15.10;63.90;;;;;;5071144;28;20040;-53
2022/04/26 10:23:14;;;;;;;17.17;12.15;;;15.20;64.30;;;;;;5006351;28;20572;-52
2022/04/26 10:25:41;;;;;;;12.90;11.45;;;15.30;65.00;;;;;;5061645;28;20036;-49
2022/04/26 10:28:16;;;;;;;13.32;11.90;;;15.40;64.80;;;;;;5079773;28;20036;-52
2022/04/26 10:30:53;;;;;;;13.52;11.57;;;15.60;64.10;;;;;;5066074;28;20055;-50
2022/04/26 10:33:37;;;;;;;12.35;11.13;;;15.70;63.90;;;;;;5083678;28;20101;-53
2022/04/26 10:36:27;;;;;;;13.00;10.48;;;15.80;63.70;;;;;;5076805;28;20510;-52
2022/04/26 10:39:08;;;;;;;13.45;11.32;;;16.00;62.80;;;;;;5058537;28;20052;-49
2022/04/26 10:41:37;;;;;;;12.73;11.27;;;16.10;61.80;;;;;;5070771;28;20123;-48
2022/04/26 10:44:15;;;;;;;12.75;11.02;;;16.20;62.40;;;;;;5085914;28;20089;-53
2022/04/26 10:47:10;;;;;;;19.83;11.85;;;16.20;61.10;;;;;;5059087;28;20090;-52
2022/04/26 10:49:40;;;;;;;11.70;10.50;;;16.30;61.20;;;;;;5064046;28;20500;-50
2022/04/26 10:52:18;;;;;;;15.35;10.23;;;16.30;61.70;;;;;;5064441;28;20094;-55
2022/04/26 10:54:48;;;;;;;11.38;10.23;;;16.30;60.70;;;;;;5075424;28;20454;-53
2022/04/26 10:57:21;;;;;;;;;;;16.30;60.50;;;;;;5080411;28;20048;-54
2022/04/26 10:59:51;;;;;;;13.05;9.68;;;16.40;60.50;;;;;;5075190;28;19920;-52
2022/04/26 11:02:21;;;;;;;12.27;10.05;;;16.30;61.00;;;;;;5066439;28;20670;-50
2022/04/26 11:04:56;;;;;;;13.48;10.23;;;16.30;61.20;;;;;;5058838;28;20045;-54
2022/04/26 11:07:29;;;;;;;11.20;9.27;;;16.30;61.10;;;;;;5057981;28;20052;-53
2022/04/26 11:10:01;;;;;;;11.95;10.20;;;16.30;61.20;;;;;;5070268;28;20040;-50
2022/04/26 11:12:34;;;;;;;10.10;9.13;;;16.20;61.10;;;;;;5065646;28;20040;-49
2022/04/26 11:15:05;;;;;;;11.45;9.40;;;16.20;60.60;;;;;;5060361;28;20048;-51
2022/04/26 11:17:35;;;;;;;11.13;9.02;;;16.20;60.70;;;;;;5050886;28;20044;-49
2022/04/26 11:20:17;;;;;;;10.70;8.52;;;16.20;61.30;;;;;;5071142;28;20086;-52
2022/04/26 11:27:59;;;;;;;11.20;8.85;;;16.20;61.70;;;;;;5067427;28;20044;-49
2022/04/26 11:28:36;;;;;;;10.65;9.02;;;16.30;60.80;;;;;;5063821;28;20098;-52
2022/04/26 11:31:03;;;;;;;10.20;8.75;;;16.40;60.50;;;;;;5072283;28;20056;-51
2022/04/26 11:33:32;;;;;;;11.73;8.88;;;16.50;60.90;;;;;;5072706;28;20169;-52
2022/04/26 11:36:01;;;;;;;9.90;8.38;;;16.50;60.30;;;;;;5064274;28;20076;-51
2022/04/26 11:38:33;;;;;;;10.07;8.25;;;16.60;60.30;;;;;;5072299;28;20102;-52
2022/04/26 11:41:03;;;;;;;15.13;9.10;;;16.70;59.70;;;;;;5063630;28;20128;-53
2022/04/26 11:43:33;;;;;;;10.00;8.95;;;16.80;59.60;;;;;;5061554;28;20036;-52
2022/04/26 11:46:04;;;;;;;11.23;9.20;;;16.80;59.50;;;;;;5062887;28;20040;-48
2022/04/26 11:48:37;;;;;;;9.82;8.50;;;16.90;59.40;;;;;;5069022;28;20607;-49
2022/04/26 11:51:04;;;;;;;9.05;8.00;;;17.00;58.50;;;;;;5080737;28;20052;-54
2022/04/26 11:53:32;;;;;;;9.40;8.18;;;17.10;59.00;;;;;;5055880;28;20098;-50
2022/04/26 11:56:04;;;;;;;9.40;8.07;;;17.30;58.60;;;;;;5065087;28;20060;-54
2022/04/26 11:58:35;;;;;;;10.43;9.32;;;17.40;58.20;;;;;;5061626;28;20586;-48
2022/04/26 12:01:12;;;;;;;10.63;8.45;;;17.60;57.70;;;;;;5061920;28;20396;-51
2022/04/26 12:03:51;;;;;;;10.27;8.23;;;17.70;56.40;;;;;;5062950;28;20060;-48
2022/04/26 12:06:27;;;;;;;9.18;8.27;;;17.80;57.00;;;;;;5075953;28;20091;-52
2022/04/26 12:09:02;;;;;;;9.02;7.65;;;17.80;56.30;;;;;;5073548;28;20052;-51
2022/04/26 12:11:38;;;;;;;9.32;7.60;;;17.90;56.30;;;;;;5074242;28;20098;-52
2022/04/26 12:14:16;;;;;;;10.18;8.07;;;17.90;56.40;;;;;;5077856;28;20559;-50
2022/04/26 12:16:54;;;;;;;8.73;7.55;;;17.90;55.50;;;;;;5076143;28;20045;-50
2022/04/26 12:19:40;;;;;;;8.88;7.97;;;18.00;55.10;;;;;;5058033;28;20500;-50
2022/04/26 12:22:13;;;;;;;12.00;8.05;;;18.00;55.10;;;;;;5074861;28;20052;-52
2022/04/26 12:24:51;;;;;;;9.23;7.50;;;18.00;55.70;;;;;;5073872;28;20211;-50
2022/04/26 12:27:22;;;;;;;12.00;7.40;;;18.10;54.70;;;;;;5083193;28;20062;-49
2022/04/26 12:29:53;;;;;;;8.60;7.22;;;18.10;55.60;;;;;;5054497;28;20049;-50
2022/04/26 12:32:24;;;;;;;11.65;7.80;;;18.20;55.00;;;;;;5068874;28;20044;-51
2022/04/26 12:34:55;;;;;;;10.23;7.50;;;18.30;54.40;;;;;;5074760;28;20071;-48
2022/04/26 12:37:31;;;;;;;11.38;8.23;;;18.30;54.40;;;;;;5079122;28;20044;-51
2022/04/26 12:40:04;;;;;;;10.55;8.05;;;18.40;54.20;;;;;;5071804;28;20419;-51
2022/04/26 12:42:36;;;;;;;8.48;7.47;;;18.30;55.00;;;;;;5045339;28;20044;-52
2022/04/26 12:45:11;;;;;;;9.13;7.00;;;18.30;53.70;;;;;;5066714;28;20036;-51
2022/04/26 12:50:32;;;;;;;9.45;7.25;;;18.20;53.40;;;;;;5077443;28;20044;-52
2022/04/26 12:53:08;;;;;;;11.68;7.47;;;18.30;53.80;;;;;;5053552;28;20075;-53
2022/04/26 12:55:48;;;;;;;12.02;8.18;;;18.10;53.70;;;;;;5064314;28;20099;-51
2022/04/26 12:58:19;;;;;;;8.57;7.78;;;18.10;54.60;;;;;;5069393;28;20101;-49
2022/04/26 13:00:50;;;;;;;12.45;9.07;;;18.20;56.20;;;;;;5063846;28;20045;-51
2022/04/26 13:03:21;;;;;;;11.03;7.53;;;18.30;54.40;;;;;;5072988;28;20089;-50
2022/04/26 13:06:03;;;;;;;8.80;7.75;;;18.40;54.70;;;;;;5086331;28;20050;-49
2022/04/26 13:08:55;;;;;;;8.65;7.28;;;18.50;54.80;;;;;;5056319;28;20045;-52
2022/04/26 13:11:32;;;;;;;8.90;7.00;;;18.70;54.30;;;;;;5074620;28;20040;-48
2022/04/26 13:14:01;;;;;;;9.63;7.57;;;18.80;54.30;;;;;;5064156;28;20048;-51
2022/04/26 13:16:48;;;;;;;8.60;7.35;;;18.90;54.50;;;;;;5063452;28;20036;-53
2022/04/26 13:19:22;;;;;;;9.35;7.35;;;19.10;54.10;;;;;;5062319;28;20054;-52
2022/04/26 13:21:51;;;;;;;7.53;6.72;;;19.30;52.90;;;;;;5057575;28;20098;-53
2022/04/26 13:24:25;;;;;;;8.82;7.13;;;19.40;52.10;;;;;;5069134;28;20064;-51
2022/04/26 13:26:52;;;;;;;8.30;6.53;;;19.40;53.00;;;;;;5059069;28;20057;-52
2022/04/26 13:29:18;;;;;;;9.80;7.05;;;19.50;53.30;;;;;;5060107;28;20041;-51
2022/04/26 13:31:51;;;;;;;9.70;7.82;;;19.70;53.00;;;;;;5063496;28;20068;-53
2022/04/26 13:34:19;;;;;;;8.98;6.35;;;19.80;52.30;;;;;;5089699;28;20048;-53
2022/04/26 13:37:01;;;;;;;7.10;6.40;;;20.20;52.40;;;;;;5068850;28;20424;-52
2022/04/26 13:39:30;;;;;;;6.25;5.65;;;20.70;52.60;;;;;;5073122;28;20046;-53
2022/04/26 13:41:56;;;;;;;7.40;5.38;;;21.40;52.50;;;;;;5081110;28;20063;-51
2022/04/26 13:44:25;;;;;;;6.80;6.20;;;22.20;52.70;;;;;;5090196;28;20085;-52
2022/04/26 13:46:55;;;;;;;6.22;5.63;;;23.10;50.70;;;;;;5089767;28;20063;-49
2022/04/26 13:49:24;;;;;;;9.38;5.10;;;24.00;50.80;;;;;;5071513;28;20098;-53
2022/04/26 13:51:51;;;;;;;7.38;4.93;;;25.00;49.90;;;;;;5064045;28;20044;-54
2022/04/26 13:54:18;;;;;;;5.40;4.90;;;26.00;46.70;;;;;;5082871;28;20048;-53
2022/04/26 13:56:49;;;;;;;4.97;4.57;;;26.80;44.30;;;;;;5075657;28;20085;-53
2022/04/26 13:59:18;;;;;;;5.13;4.28;;;27.40;42.10;;;;;;5061928;28;20080;-53
2022/04/26 14:01:50;;;;;;;16.40;5.22;;;27.80;41.00;;;;;;5084959;28;20040;-52
2022/04/26 14:04:18;;;;;;;10.82;4.93;;;28.20;39.80;;;;;;5090987;28;20040;-52
2022/04/26 14:06:48;;;;;;;10.57;4.53;;;28.60;40.20;;;;;;5075811;28;20036;-50
2022/04/26 14:09:21;;;;;;;5.10;4.60;;;29.10;39.20;;;;;;5086219;28;20044;-53
2022/04/26 14:11:49;;;;;;;5.20;4.70;;;29.60;39.00;;;;;;5068882;28;20052;-52
2022/04/26 14:22:46;;;;;;;4.03;3.72;;;29.20;34.40;;;;;;5063693;28;20463;-53
2022/04/26 14:25:16;;;;;;;5.47;3.75;;;28.90;34.40;;;;;;5078553;28;20127;-50
2022/04/26 14:27:48;;;;;;;4.35;3.83;;;28.80;36.50;;;;;;5071996;28;20082;-53
2022/04/26 14:30:20;;;;;;;8.43;4.72;;;29.00;35.50;;;;;;5054269;28;20180;-54
2022/04/26 14:33:06;;;;;;;5.03;4.07;;;29.40;36.40;;;;;;5081253;28;20119;-50
2022/04/26 14:35:33;;;;;;;7.38;4.50;;;29.90;36.20;;;;;;5062562;22;20641;-54
2022/04/26 14:38:00;;;;;;;5.38;4.88;;;30.40;35.30;;;;;;5024247;28;20057;-53
2022/04/26 14:40:28;;;;;;;6.78;4.18;;;30.70;34.60;;;;;;5045020;28;20094;-52
2022/04/26 14:42:57;;;;;;;4.88;4.45;;;31.20;34.40;;;;;;5022643;28;20126;-53
2022/04/26 14:45:24;;;;;;;4.65;4.25;;;31.60;33.90;;;;;;5043029;28;20075;-53
2022/04/26 14:47:51;;;;;;;5.50;4.65;;;31.90;33.30;;;;;;5037623;28;20041;-54
2022/04/26 14:50:18;;;;;;;7.07;4.47;;;32.20;32.40;;;;;;5043249;28;20400;-54
2022/04/26 14:52:45;;;;;;;4.00;3.67;;;32.40;32.30;;;;;;5029023;28;20060;-54
2022/04/26 14:55:11;;;;;;;5.25;4.07;;;32.60;32.50;;;;;;5048506;28;20041;-55
2022/04/26 14:57:38;;;;;;;5.95;5.00;;;32.80;32.20;;;;;;5032672;28;20049;-55
2022/04/26 15:00:06;;;;;;;5.30;4.40;;;33.00;30.30;;;;;;5045764;28;20071;-52
2022/04/26 15:02:39;;;;;;;4.10;3.70;;;33.10;30.40;;;;;;5029136;28;20512;-53
2022/04/26 15:05:10;;;;;;;4.35;4.05;;;33.10;31.30;;;;;;5050297;28;20037;-54
2022/04/26 15:10:28;;;;;;;4.07;3.67;;;33.30;30.70;;;;;;5049431;28;20147;-55
2022/04/26 15:18:26;;;;;;;4.50;3.53;;;33.80;29.90;;;;;;5037253;28;20516;-54
2022/04/26 15:20:53;;;;;;;6.05;3.97;;;34.00;29.90;;;;;;5021085;28;20033;-55
2022/04/26 15:23:21;;;;;;;3.90;3.60;;;34.40;29.90;;;;;;5040609;28;20037;-51
2022/04/26 15:25:53;;;;;;;5.13;3.67;;;34.70;28.90;;;;;;5039992;28;21337;-55
2022/04/26 15:28:20;;;;;;;4.22;3.80;;;34.70;28.20;;;;;;5036102;28;20045;-54
2022/04/26 15:30:48;;;;;;;5.20;4.70;;;34.40;27.70;;;;;;5045990;28;20040;-56
2022/04/26 15:33:17;;;;;;;5.45;3.78;;;33.70;27.30;;;;;;5033289;28;20053;-52
2022/04/26 15:35:44;;;;;;;5.35;4.53;;;32.90;27.70;;;;;;5043161;28;20064;-56
2022/04/26 15:38:12;;;;;;;4.53;4.07;;;32.30;28.00;;;;;;5031584;28;20063;-55
2022/04/26 15:40:42;;;;;;;4.38;3.92;;;31.80;28.50;;;;;;5053571;28;20047;-54
2022/04/26 15:43:12;;;;;;;4.30;3.90;;;31.50;29.00;;;;;;5059748;28;20843;-53
2022/04/26 15:45:39;;;;;;;5.35;4.05;;;31.20;28.80;;;;;;5051761;28;20041;-51
2022/04/26 15:48:08;;;;;;;4.93;3.50;;;31.00;29.00;;;;;;5049053;28;20100;-49
2022/04/26 15:50:35;;;;;;;3.90;3.60;;;30.80;28.90;;;;;;5061526;28;20454;-49
2022/04/26 15:53:01;;;;;;;4.03;3.42;;;30.60;28.80;;;;;;5052377;28;20549;-53
2022/04/26 15:55:35;;;;;;;4.03;3.72;;;30.30;29.10;;;;;;5048405;28;20047;-52
2022/04/26 15:58:04;;;;;;;4.20;3.47;;;30.30;29.50;;;;;;5051066;28;20095;-54
2022/04/26 16:00:31;;;;;;;4.13;3.20;;;30.50;29.60;;;;;;5061974;28;20068;-53
2022/04/26 16:03:05;;;;;;;4.03;3.30;;;30.90;29.80;;;;;;5049430;28;20421;-53
2022/04/26 16:05:35;;;;;;;5.25;4.45;;;31.20;29.40;;;;;;5043244;28;20145;-54
2022/04/26 16:08:02;;;;;;;6.07;4.40;;;31.30;28.50;;;;;;5036862;28;20110;-53
2022/04/26 16:21:39;;;;;;;5.07;4.35;;;29.30;29.10;;;;;;5041433;28;20098;-53
2022/04/26 16:24:08;;;;;;;4.32;3.83;;;29.20;29.40;;;;;;5057774;28;20091;-53
2022/04/26 16:26:36;;;;;;;3.42;3.22;;;29.20;29.30;;;;;;5063180;28;20037;-52
2022/04/26 16:29:07;;;;;;;5.28;4.20;;;29.30;29.40;;;;;;5045785;28;20044;-51
2022/04/26 16:31:34;;;;;;;4.70;3.90;;;29.50;29.50;;;;;;5057750;28;20045;-54
2022/04/26 16:34:02;;;;;;;4.22;3.80;;;29.60;29.40;;;;;;5069780;28;20048;-53
2022/04/26 16:36:36;;;;;;;4.22;3.83;;;29.80;29.00;;;;;;5048589;28;20051;-51
2022/04/26 16:39:11;;;;;;;4.60;4.10;;;30.00;28.60;;;;;;5059425;28;20055;-52
2022/04/26 16:41:38;;;;;;;3.80;3.45;;;30.10;28.50;;;;;;5062560;28;20127;-52
2022/04/26 16:44:08;;;;;;;5.30;4.80;;;30.10;28.80;;;;;;5063732;28;20168;-52
2022/04/26 16:46:36;;;;;;;4.38;3.88;;;30.00;28.70;;;;;;5050892;28;20041;-51
2022/04/26 16:49:04;;;;;;;4.15;3.85;;;30.10;29.20;;;;;;5060556;28;20459;-51
2022/04/26 16:51:34;;;;;;;3.88;3.58;;;30.00;29.30;;;;;;5049776;28;20045;-50
2022/04/26 16:54:01;;;;;;;5.78;3.60;;;30.00;29.00;;;;;;5046756;28;20102;-52
2022/04/26 16:56:28;;;;;;;3.70;3.40;;;29.90;28.80;;;;;;5048521;28;20519;-52
2022/04/26 16:58:54;;;;;;;3.63;3.30;;;29.80;28.60;;;;;;5058927;28;20040;-47
2022/04/26 17:01:21;;;;;;;4.55;4.15;;;29.50;28.90;;;;;;5068274;28;20051;-48
2022/04/26 17:03:50;;;;;;;3.78;3.40;;;29.30;29.00;;;;;;5058766;28;20068;-51
2022/04/26 17:06:18;;;;;;;4.00;3.50;;;29.20;28.90;;;;;;5056870;28;20055;-50
2022/04/26 17:08:50;;;;;;;5.00;3.42;;;29.20;29.00;;;;;;5055379;28;20384;-52
2022/04/26 17:14:14;;;;;;;;;;;29.40;29.30;;;;;;5048840;28;20045;-51
2022/04/26 17:16:47;;;;;;;4.45;2.95;;;29.60;30.60;;;;;;5059699;28;20009;-51
2022/04/26 17:19:19;;;;;;;3.80;3.00;;;29.90;29.50;;;;;;5053474;28;20064;-52